createdAt,value
2022-09-07T00:00:20.339Z,18.35
2022-09-07T00:05:22.046Z,18.05
2022-09-07T00:10:23.937Z,18.18
2022-09-07T00:15:25.831Z,18.14
2022-09-07T00:20:27.433Z,17.93
2022-09-07T00:25:31.877Z,18.02
2022-09-07T00:30:34.870Z,17.82
2022-09-07T00:35:41.049Z,17.84
2022-09-07T00:40:42.770Z,18.06
2022-09-07T00:45:44.332Z,18.01
2022-09-07T00:50:57.831Z,18.12
2022-09-07T00:55:59.761Z,18.25
2022-09-07T01:01:01.582Z,18.23
2022-09-07T01:06:18.075Z,17.99
2022-09-07T01:11:21.910Z,17.83
2022-09-07T01:16:42.192Z,18.08
2022-09-07T01:22:27.917Z,17.71
2022-09-07T01:27:41.580Z,17.65
2022-09-07T01:33:26.787Z,17.76
2022-09-07T01:38:37.795Z,17.83
2022-09-07T01:44:09.809Z,17.84
2022-09-07T01:49:23.572Z,17.72
2022-09-07T01:54:33.092Z,17.94
2022-09-07T01:59:44.050Z,18.00
2022-09-07T02:04:52.990Z,17.84
2022-09-07T02:09:59.379Z,18.09
2022-09-07T02:15:05.265Z,17.84
2022-09-07T02:20:11.221Z,17.72
2022-09-07T02:25:22.707Z,17.65
2022-09-07T02:30:24.438Z,17.73
2022-09-07T02:35:26.207Z,17.78
2022-09-07T02:40:27.998Z,17.81
2022-09-07T02:45:38.433Z,17.94
2022-09-07T02:50:48.883Z,17.86
2022-09-07T02:56:12.612Z,17.85
2022-09-07T03:01:24.596Z,17.57
2022-09-07T03:06:41.727Z,17.79
2022-09-07T03:11:43.388Z,17.86
2022-09-07T03:16:46.472Z,17.92
2022-09-07T03:21:48.617Z,17.80
2022-09-07T03:26:51.742Z,17.86
2022-09-07T03:31:53.309Z,17.88
2022-09-07T03:36:54.876Z,17.83
2022-09-07T03:41:56.442Z,17.79
2022-09-07T03:46:57.987Z,17.81
2022-09-07T03:51:59.793Z,17.68
2022-09-07T03:57:01.361Z,17.52
2022-09-07T04:02:03.359Z,17.75
2022-09-07T04:07:05.848Z,17.51
2022-09-07T04:12:07.714Z,17.69
2022-09-07T04:17:09.354Z,17.40
2022-09-07T04:22:11.013Z,17.47
2022-09-07T04:27:12.866Z,17.60
2022-09-07T04:32:15.975Z,17.67
2022-09-07T04:37:18.618Z,17.60
2022-09-07T04:42:20.711Z,17.46
2022-09-07T04:47:22.498Z,17.22
2022-09-07T04:52:24.389Z,17.37
2022-09-07T04:57:26.630Z,17.34
2022-09-07T05:02:28.207Z,17.57
2022-09-07T05:07:29.856Z,17.67
2022-09-07T05:12:31.566Z,17.65
2022-09-07T05:17:33.547Z,17.55
2022-09-07T05:22:35.718Z,17.69
2022-09-07T05:27:37.438Z,17.56
2022-09-07T05:32:39.247Z,17.65
2022-09-07T05:37:41.392Z,17.72
2022-09-07T05:42:43.105Z,17.73
2022-09-07T05:47:45.137Z,17.99
2022-09-07T05:52:48.006Z,17.96
2022-09-07T05:57:49.870Z,18.19
2022-09-07T06:02:51.610Z,18.33
2022-09-07T06:07:54.708Z,18.41
2022-09-07T06:12:56.420Z,18.57
2022-09-07T06:17:58.121Z,18.59
2022-09-07T06:22:59.712Z,18.78
2022-09-07T06:28:01.445Z,18.92
2022-09-07T06:33:03.598Z,19.11
2022-09-07T06:38:05.646Z,19.16
2022-09-07T06:43:07.494Z,19.24
2022-09-07T06:48:09.250Z,19.38
2022-09-07T06:58:32.964Z,19.46
2022-09-07T07:03:34.716Z,19.58
2022-09-07T07:08:36.948Z,19.72
2022-09-07T07:13:40.260Z,19.88
2022-09-07T07:18:42.620Z,19.99
2022-09-07T07:23:44.846Z,19.96
2022-09-07T07:29:04.561Z,20.03
2022-09-07T07:34:06.347Z,20.11
2022-09-07T07:39:08.487Z,20.30
2022-09-07T07:44:29.647Z,20.33
2022-09-07T07:49:31.222Z,20.36
2022-09-07T07:54:36.844Z,20.42
2022-09-07T07:59:39.137Z,20.64
2022-09-07T08:04:40.714Z,20.77
2022-09-07T08:09:44.084Z,20.91
2022-09-07T08:14:47.622Z,20.92
2022-09-07T08:19:49.243Z,20.92
2022-09-07T08:24:51.171Z,20.95
2022-09-07T08:29:52.674Z,21.04
2022-09-07T08:34:54.165Z,21.11
2022-09-07T08:39:55.749Z,21.19
2022-09-07T08:45:10.020Z,21.32
2022-09-07T08:50:23.210Z,21.38
2022-09-07T08:56:23.587Z,21.48
2022-09-07T09:01:31.828Z,21.61
2022-09-07T09:06:48.856Z,21.63
2022-09-07T09:11:59.462Z,21.76
2022-09-07T09:17:08.690Z,21.81
2022-09-07T09:22:15.592Z,21.89
2022-09-07T09:27:17.165Z,22.02
2022-09-07T09:32:36.624Z,22.25
2022-09-07T09:37:39.738Z,22.31
2022-09-07T09:42:41.338Z,22.29
2022-09-07T09:47:49.017Z,22.43
2022-09-07T09:52:51.927Z,22.41
2022-09-07T10:09:05.347Z,22.78
2022-09-07T10:14:18.440Z,22.87
2022-09-07T10:19:35.490Z,22.90
2022-09-07T10:24:39.152Z,22.94
2022-09-07T10:29:41.681Z,22.98
2022-09-07T10:34:52.568Z,22.96
2022-09-07T10:40:12.332Z,23.01
2022-09-07T10:45:20.073Z,22.91
2022-09-07T10:50:31.921Z,22.89
2022-09-07T10:55:36.863Z,22.96
2022-09-07T11:01:03.157Z,22.97
2022-09-07T11:06:30.260Z,23.08
2022-09-07T11:17:04.407Z,23.13
2022-09-07T11:22:30.196Z,23.26
2022-09-07T11:27:45.850Z,23.23
2022-09-07T11:32:58.950Z,23.23
2022-09-07T11:38:06.480Z,23.28
2022-09-07T11:43:30.466Z,23.33
2022-09-07T11:48:48.736Z,23.40
2022-09-07T11:53:56.217Z,23.36
2022-09-07T11:58:57.606Z,23.38
2022-09-07T12:04:27.409Z,23.31
2022-09-07T12:09:41.110Z,23.37
2022-09-07T12:15:01.288Z,23.37
2022-09-07T12:20:16.191Z,23.43
2022-09-07T12:25:18.670Z,23.54
2022-09-07T12:30:20.090Z,23.62
2022-09-07T12:35:27.325Z,23.60
2022-09-07T12:40:28.928Z,23.54
2022-09-07T12:45:30.407Z,23.56
2022-09-07T12:50:39.475Z,23.43
2022-09-07T12:56:18.918Z,23.42
2022-09-07T13:02:11.176Z,23.33
2022-09-07T13:07:29.448Z,23.25
2022-09-07T13:17:56.422Z,23.14
2022-09-07T13:23:16.338Z,23.09
2022-09-07T13:28:23.726Z,23.03
2022-09-07T13:33:25.190Z,22.99
2022-09-07T13:38:27.660Z,22.94
2022-09-07T13:43:29.208Z,23.03
2022-09-07T13:48:37.666Z,23.12
2022-09-07T13:53:48.324Z,23.16
2022-09-07T13:58:52.123Z,23.19
2022-09-07T14:03:59.810Z,23.20
2022-09-07T14:09:11.562Z,23.19
2022-09-07T14:14:21.039Z,23.18
2022-09-07T14:19:29.662Z,23.20
2022-09-07T14:24:34.223Z,23.15
2022-09-07T14:29:36.721Z,23.15
2022-09-07T14:34:38.586Z,23.18
2022-09-07T14:39:42.502Z,23.21
2022-09-07T14:44:44.911Z,23.19
2022-09-07T14:49:52.580Z,23.25
2022-09-07T14:54:54.147Z,23.23
2022-09-07T14:59:57.199Z,23.26
2022-09-07T15:05:17.962Z,23.25
2022-09-07T15:10:23.542Z,23.30
2022-09-07T15:15:39.510Z,23.34
2022-09-07T15:20:44.016Z,23.31
2022-09-07T15:25:50.949Z,23.28
2022-09-07T15:31:40.540Z,23.36
2022-09-07T15:36:16.399Z,23.36
2022-09-07T15:41:24.071Z,23.37
2022-09-07T15:46:26.247Z,23.44
2022-09-07T16:13:02.832Z,23.45
2022-09-07T16:18:05.343Z,23.38
2022-09-07T16:23:15.227Z,23.32
2022-09-07T16:28:17.329Z,23.29
2022-09-07T16:33:18.898Z,23.24
2022-09-07T16:43:41.995Z,23.15
2022-09-07T16:48:44.125Z,23.13
2022-09-07T16:53:45.802Z,23.08
2022-09-07T16:58:49.467Z,23.00
2022-09-07T17:03:51.915Z,22.95
2022-09-07T17:08:53.932Z,22.93
2022-09-07T17:13:57.023Z,22.86
2022-09-07T17:24:24.212Z,22.76
2022-09-07T17:29:25.747Z,22.74
2022-09-07T17:34:27.619Z,22.68
2022-09-07T17:39:29.991Z,22.61
2022-09-07T17:44:36.005Z,22.58
2022-09-07T17:49:39.783Z,22.57
2022-09-07T17:54:42.037Z,22.56
2022-09-07T18:05:11.502Z,22.48
2022-09-07T18:10:13.193Z,22.40
2022-09-07T18:15:14.872Z,22.37
2022-09-07T18:20:16.502Z,22.38
2022-09-07T18:25:18.107Z,22.35
2022-09-07T18:30:19.934Z,22.30
2022-09-07T18:35:21.497Z,22.28
2022-09-07T18:40:23.211Z,22.32
2022-09-07T18:45:28.227Z,22.29
2022-09-07T18:50:29.955Z,22.29
2022-09-07T18:55:32.311Z,22.23
2022-09-07T19:00:34.003Z,22.15
2022-09-07T19:05:52.733Z,22.12
2022-09-07T19:10:54.632Z,22.10
2022-09-07T19:16:09.827Z,22.07
2022-09-07T19:21:16.568Z,22.01
2022-09-07T19:26:18.377Z,21.92
2022-09-07T19:31:20.001Z,21.92
2022-09-07T19:36:22.087Z,21.92
2022-09-07T19:41:23.759Z,21.88
2022-09-07T19:46:25.706Z,21.80
2022-09-07T19:51:27.474Z,21.78
2022-09-07T19:56:28.956Z,21.68
2022-09-07T20:01:30.847Z,21.71
2022-09-07T20:06:33.420Z,21.64
2022-09-07T20:11:35.588Z,21.57
2022-09-07T20:16:39.137Z,21.67
2022-09-07T20:21:40.933Z,21.55
2022-09-07T20:26:42.538Z,21.40
2022-09-07T20:31:44.367Z,21.37
2022-09-07T20:36:45.892Z,21.27
2022-09-07T20:41:47.761Z,21.25
2022-09-07T20:46:49.317Z,21.20
2022-09-07T20:51:50.938Z,21.22
2022-09-07T20:56:52.572Z,21.12
2022-09-07T21:01:54.171Z,21.13
2022-09-07T21:06:55.703Z,21.12
2022-09-07T21:11:57.385Z,21.15
2022-09-07T21:16:58.940Z,20.94
2022-09-07T21:22:00.455Z,20.85
2022-09-07T21:27:01.996Z,20.82
2022-09-07T21:32:03.658Z,20.75
2022-09-07T21:37:05.218Z,20.96
2022-09-07T21:42:06.734Z,20.85
2022-09-07T21:47:08.345Z,20.85
2022-09-07T21:52:09.991Z,20.87
2022-09-07T21:57:11.545Z,20.72
2022-09-07T22:02:13.119Z,20.65
2022-09-07T22:07:14.722Z,20.70
2022-09-07T22:12:16.877Z,20.78
2022-09-07T22:17:18.405Z,20.68
2022-09-07T22:22:19.910Z,20.74
2022-09-07T22:27:21.415Z,20.64
2022-09-07T22:32:22.957Z,20.58
2022-09-07T22:37:24.702Z,20.58
2022-09-07T22:42:26.274Z,20.68
2022-09-07T22:47:27.763Z,20.60
2022-09-07T22:52:29.314Z,20.59
2022-09-07T22:57:30.836Z,20.53
2022-09-07T23:02:32.368Z,20.50
2022-09-07T23:07:33.862Z,20.14
2022-09-07T23:12:35.416Z,20.44
2022-09-07T23:17:36.934Z,20.45
2022-09-07T23:22:38.679Z,20.38
2022-09-07T23:27:40.313Z,20.26
2022-09-07T23:32:41.893Z,20.28
2022-09-07T23:37:43.541Z,20.28
2022-09-07T23:42:45.050Z,20.26
2022-09-07T23:47:46.696Z,20.20
2022-09-07T23:52:48.174Z,20.08
2022-09-07T23:57:49.671Z,20.10
